• Join FlightAware (Why Join?)
  • Login
  • US Flag 
03:57PM EDT


 

Airport Tracker/Info


-or-


 

Live Flight TrackerFlight Track Log ✈ BWA16 ✈ 06-May-2012 ✈ KJFK - MKJP / KIN

Flight Track Log - Related Links

Times and Time Zones

All times are in EDT time to prevent confusion due to time zone crossing. See the BWA16 flight status page for this flight to view local times or setup timezone preferences in your user account.

Time Position Orientation Groundspeed Altitude Reporting Facility
EDT Latitude Longitude Course Direction KTS MPH feet Rate Location/Type
02:08AM 40.6500 -73.7000 122° Southeast 202 232 2,600  Level New York TRACON
02:10AM 40.6011 -73.5973 157° South 275 316 5,800 2,100 Climbing FlightAware ADS-B
02:10AM 40.5832 -73.5872 157° South 280 322 6,400 2,280 Climbing FlightAware ADS-B
02:11AM 40.5645 -73.5765 157° South 288 331 7,000 2,280 Climbing FlightAware ADS-B
02:11AM 40.5453 -73.5658 156° South 297 342 7,600 2,220 Climbing FlightAware ADS-B
02:11AM 40.5308 -73.5575 157° South 301 346 8,000 2,520 Climbing FlightAware ADS-B
02:11AM 40.5121 -73.5472 157° South 304 350 8,700 2,760 Climbing FlightAware ADS-B
02:11AM 40.4921 -73.5361 157° South 308 354 9,400 2,160 Climbing FlightAware ADS-B
02:12AM 40.4508 -73.5133 157° South 331 381 10,400 1,740 Climbing FlightAware ADS-B
02:12AM 40.4053 -73.4882 157° South 361 415 11,200 1,680 Climbing FlightAware ADS-B
02:13AM 40.3835 -73.4763 157° South 373 429 11,700 1,440 Climbing FlightAware ADS-B
02:13AM 40.3685 -73.4680 158° South 376 433 11,800 660 Climbing FlightAware ADS-B
02:13AM 40.3568 -73.4619 165° South 376 433 11,900 480 Climbing FlightAware ADS-B
02:13AM 40.3459 -73.4580 172° South 375 432 11,900  Level FlightAware ADS-B
02:13AM 40.3403 -73.4570 178° South 374 430 11,900 840 Level FlightAware ADS-B
02:13AM 40.3326 -73.4566 184° South 371 427 12,000 1,320 Climbing FlightAware ADS-B
02:13AM 40.3254 -73.4573 190° South 369 425 12,100 1,320 Climbing FlightAware ADS-B
02:13AM 40.3175 -73.4592 193° South 368 423 12,200 2,640 Climbing FlightAware ADS-B
02:14AM 40.2675 -73.4745 193° South 371 427 13,600 2,820 Climbing FlightAware ADS-B
02:14AM 40.2155 -73.4899 193° South 377 434 15,100 2,820 Climbing FlightAware ADS-B
02:15AM 40.1634 -73.5054 192° South 387 445 16,500 2,880 Climbing FlightAware ADS-B
02:15AM 40.1075 -73.5210 191° South 392 451 18,100 2,400 Climbing FlightAware ADS-B
02:16AM 40.0497 -73.5363 191° South 409 471 19,100 2,100 Climbing FlightAware ADS-B
02:16AM 39.9912 -73.5512 191° South 422 486 20,300 2,340 Climbing FlightAware ADS-B
02:17AM 39.9325 -73.5656 192° South 428 493 21,500 2,280 Climbing FlightAware ADS-B
02:17AM 39.9111 -73.5715 196° South 430 495 21,900 2,100 Climbing FlightAware ADS-B
02:17AM 39.9046 -73.5739 201° Southwest 428 493 22,000 1,980 Climbing FlightAware ADS-B
02:17AM 39.8833 -73.5845 207° Southwest 426 490 22,400 1,740 Climbing FlightAware ADS-B
02:18AM 39.8623 -73.5986 211° Southwest 425 489 22,700 1,680 Climbing FlightAware ADS-B
02:18AM 39.8471 -73.6107 211° Southwest 427 491 23,000 1,620 Climbing FlightAware ADS-B
02:18AM 39.8253 -73.6276 206° Southwest 436 502 23,300 1,680 Climbing FlightAware ADS-B
02:18AM 39.8024 -73.6424 202° Southwest 444 511 23,700 1,560 Climbing FlightAware ADS-B
02:19AM 39.7470 -73.6712 201° Southwest 458 527 24,400 1,440 Climbing FlightAware ADS-B
02:19AM 39.6807 -73.7042 201° Southwest 471 542 25,200 1,500 Climbing FlightAware ADS-B
02:20AM 39.6182 -73.7348 201° Southwest 482 555 26,000 1,800 Climbing FlightAware ADS-B
02:20AM 39.5544 -73.7658 200° South 484 557 27,000 2,460 Climbing FlightAware ADS-B
02:21AM 39.4923 -73.7958 200° South 468 539 28,500 2,940 Climbing FlightAware ADS-B
02:21AM 39.4311 -73.8254 201° Southwest 455 524 30,000 2,520 Climbing FlightAware ADS-B
02:22AM 39.3716 -73.8542 201° Southwest 448 516 31,100 1,740 Climbing FlightAware ADS-B
02:22AM 39.3124 -73.8834 201° Southwest 452 520 31,800 1,260 Climbing FlightAware ADS-B
02:23AM 39.2524 -73.9128 201° Southwest 457 526 32,400 1,260 Climbing FlightAware ADS-B
02:23AM 39.1932 -73.9418 201° Southwest 459 528 33,100 1,320 Climbing FlightAware ADS-B
02:24AM 39.1330 -73.9711 201° Southwest 460 529 33,800 1,200 Climbing FlightAware ADS-B
02:24AM 39.0729 -74.0004 201° Southwest 464 534 34,300 600 Climbing FlightAware ADS-B
02:25AM 39.0107 -74.0306 201° Southwest 480 552 34,400 240 Climbing FlightAware ADS-B
02:25AM 38.9463 -74.0619 201° Southwest 490 564 34,600 660 Climbing FlightAware ADS-B
02:26AM 38.8816 -74.0932 201° Southwest 493 567 35,100 1,260 Climbing FlightAware ADS-B
02:26AM 38.8168 -74.1243 200° South 487 560 35,900 1,620 Climbing FlightAware ADS-B
02:27AM 38.7529 -74.1549 200° South 479 551 36,800 1,620 Climbing FlightAware ADS-B
02:27AM 38.6906 -74.1846 200° South 471 542 37,600 1,140 Climbing FlightAware ADS-B
02:28AM 38.6298 -74.2137 201° Southwest 469 540 38,000 360 Climbing FlightAware ADS-B
02:28AM 38.5683 -74.2432 201° Southwest 469 540 38,000  Level FlightAware ADS-B
02:29AM 38.5056 -74.2733 201° Southwest 469 540 38,000  Level FlightAware ADS-B
02:29AM 38.4443 -74.3027 200° South 469 540 38,000  Level FlightAware ADS-B
02:30AM 38.3834 -74.3317 201° Southwest 469 540 38,000  Level FlightAware ADS-B
02:30AM 38.3218 -74.3611 200° South 470 541 38,000  Level FlightAware ADS-B
02:31AM 38.2603 -74.3903 200° South 471 542 38,000  Level FlightAware ADS-B
02:32AM 38.1612 -74.4369 200° South 464 534 38,000  Level FlightAware ADS-B
02:32AM 38.1011 -74.4653 200° South 458 527 38,000  Level FlightAware ADS-B
02:33AM 38.0413 -74.4935 200° South 458 527 38,000  Level FlightAware ADS-B
02:33AM 37.9813 -74.5217 200° South 456 525 38,000  Level FlightAware ADS-B
02:34AM 37.9217 -74.5498 200° South 452 520 38,000  Level FlightAware ADS-B
02:34AM 37.8554 -74.5811 200° South 453 521 38,000  Level FlightAware ADS-B
02:35AM 37.7957 -74.6092 200° South 452 520 38,000  Level FlightAware ADS-B
02:35AM 37.7355 -74.6373 200° South 452 520 38,000  Level FlightAware ADS-B
02:36AM 37.6759 -74.6651 200° South 452 520 38,000  Level FlightAware ADS-B
02:36AM 37.6153 -74.6933 200° South 454 522 38,000  Level FlightAware ADS-B
02:37AM 37.5554 -74.7209 200° South 456 525 38,000  Level FlightAware ADS-B
02:37AM 37.4952 -74.7484 200° South 456 525 38,000  Level FlightAware ADS-B
02:38AM 37.4342 -74.7767 200° South 456 525 38,000  Level FlightAware ADS-B
02:38AM 37.3711 -74.8061 200° South 454 522 38,000  Level FlightAware ADS-B
02:39AM 37.2974 -74.8404 200° South 454 522 38,000  Level FlightAware ADS-B
02:39AM 37.2368 -74.8684 200° South 455 524 38,000  Level FlightAware ADS-B
02:40AM 37.1774 -74.8958 200° South 455 524 38,000  Level FlightAware ADS-B
02:40AM 37.1168 -74.9237 200° South 455 524 38,000  Level FlightAware ADS-B
02:41AM 37.0567 -74.9512 200° South 454 522 38,000  Level FlightAware ADS-B
02:41AM 36.9974 -74.9784 200° South 453 521 38,000  Level FlightAware ADS-B
02:42AM 36.9355 -75.0068 200° South 452 520 38,000  Level FlightAware ADS-B
02:43AM 36.8763 -75.0338 200° South 451 519 38,000  Level FlightAware ADS-B
02:43AM 36.8198 -75.0596 200° South 451 519 38,000  Level FlightAware ADS-B
02:44AM 36.7095 -75.1096 200° South 450 518 38,000  Level FlightAware ADS-B
02:45AM 36.5819 -75.1674 200° South 447 514 38,000  Level FlightAware ADS-B
02:46AM 36.5175 -75.1965 200° South 445 512 38,000  Level FlightAware ADS-B
02:47AM 36.4119 -75.2436 200° South 446 513 38,000  Level Washington Center
02:48AM 36.2933 -75.2981 199° South 446 513 38,000 -60 Level Washington Center
02:49AM 36.1828 -75.3450 201° Southwest 446 513 37,900  Descending Washington Center
02:50AM 36.0661 -75.3994 198° South 446 513 38,000  Climbing Washington Center
02:51AM 35.9536 -75.4458 200° South 446 513 38,000 -60 Level Washington Center
02:52AM 35.8408 -75.4972 199° South 441 507 37,900  Descending Washington Center
02:53AM 35.7283 -75.5461 200° South 441 507 38,000  Climbing Washington Center
02:54AM 35.6136 -75.5972 200° South 441 507 38,000  Level Washington Center
02:55AM 35.5008 -75.6483 198° South 441 507 38,000 -60 Level Washington Center
02:56AM 35.3881 -75.6939 200° South 436 502 37,900  Descending Washington Center
02:57AM 35.2650 -75.7497 202° Southwest 431 496 38,000  Climbing Washington Center
02:58AM 35.1500 -75.8056 199° South 431 496 37,900  Descending Washington Center
02:59AM 35.0394 -75.8533 199° South 431 496 38,000  Climbing Washington Center
03:00AM 34.9244 -75.9011 200° South 431 496 38,000  Level Washington Center
03:01AM 34.8139 -75.9514 199° South 436 502 38,000  Level Washington Center
03:02AM 34.7011 -75.9989 199° South 436 502 38,000  Level Washington Center
03:03AM 34.5861 -76.0461 200° South 430 495 38,000  Level Washington Center
03:04AM 34.4711 -76.0961 200° South 430 495 38,000  Level Washington Center
03:05AM 34.3603 -76.1456 198° South 430 495 38,000  Level Washington Center
03:06AM 34.2453 -76.1900 200° South 424 488 38,000  Level Washington Center
03:07AM 34.1367 -76.2369 200° South 430 495 38,000  Level Washington Center
03:08AM 34.0236 -76.2861 214° Southwest 430 495 38,000  Level Washington Center
03:09AM 33.9253 -76.3656 222° Southwest 418 481 38,000  Level Washington Center
03:10AM 33.8347 -76.4647 222° Southwest 432 497 38,000  Level Washington Center
03:11AM 33.7464 -76.5611 222° Southwest 432 497 38,000  Level Washington Center
03:12AM 33.6558 -76.6597 222° Southwest 437 503 38,000  Level Washington Center
03:14AM 33.4369 -76.8922 215° Southwest 436 502 38,000  Level Jacksonville Center
03:15AM 33.3367 -76.9758 215° Southwest 446 513 38,000  Level Jacksonville Center
03:16AM 33.2364 -77.0597 215° Southwest 446 513 38,000  Level Jacksonville Center
03:17AM 33.1339 -77.1456 215° Southwest 452 520 38,000  Level Jacksonville Center
03:18AM 33.0333 -77.2289 214° Southwest 452 520 38,000  Level Jacksonville Center
03:19AM 32.9283 -77.3122 213° Southwest 452 520 38,000  Level Jacksonville Center
03:20AM 32.8256 -77.3928 210° Southwest 452 520 38,000  Level Jacksonville Center
03:21AM 32.7181 -77.4658 209° Southwest 452 520 38,000  Level Jacksonville Center
03:22AM 32.6106 -77.5364 210° Southwest 447 514 38,000  Level Jacksonville Center
03:23AM 32.5233 -77.5958 201° Southwest 447 514 38,000  Level Jacksonville Center
03:24AM 32.4025 -77.6519 176° South 447 514 38,000  Level Jacksonville Center
03:25AM 32.2747 -77.6422 170° South 437 503 38,000  Level Jacksonville Center
03:26AM 32.1506 -77.6175 171° South 437 503 38,000  Level Jacksonville Center
03:27AM 32.0264 -77.5953 177° South 448 516 38,000  Level Jacksonville Center
03:28AM 31.9011 -77.5878 187° South 448 516 38,000  Level Jacksonville Center
03:29AM 31.7764 -77.6047 182° South 448 516 38,000  Level Jacksonville Center
03:30AM 31.6536 -77.6092 179° South 448 516 38,000  Level Jacksonville Center
03:31AM 31.5281 -77.6067 179° South 448 516 38,000  Level Jacksonville Center
03:32AM 31.4008 -77.6042 178° South 448 516 38,000  Level Jacksonville Center
03:33AM 31.2733 -77.5992 178° South 458 527 38,000  Level Jacksonville Center
03:34AM 31.1456 -77.5942 176° South 463 533 38,000  Level Jacksonville Center
03:35AM 31.0181 -77.5844 179° South 463 533 38,000  Level Jacksonville Center
03:36AM 30.8947 -77.5817 180° South 463 533 38,000  Level Jacksonville Center
03:37AM 30.7675 -77.5817 178° South 463 533 38,000  Level Jacksonville Center
03:39AM 30.4475 -77.5703 179° South 490 564 38,000  Level Miami Center
03:40AM 30.3203 -77.5672 179° South 470 541 38,000  Level Miami Center
03:41AM 30.2078 -77.5639 179° South 447 514 38,000  Level Miami Center
03:42AM 30.0764 -77.5608 179° South 445 512 38,000  Level Miami Center
03:43AM 29.9472 -77.5575 179° South 462 532 38,000  Level Miami Center
03:44AM 29.8178 -77.5542 177° South 462 532 38,000  Level Miami Center
03:45AM 29.6803 -77.5461 179° South 469 540 38,000  Level Miami Center
03:46AM 29.5531 -77.5431 178° South 468 539 38,000  Level Miami Center
03:47AM 29.4197 -77.5375 179° South 477 549 38,000  Level Miami Center
03:48AM 29.3050 -77.5344 179° South 471 542 38,000 -60 Level Miami Center
03:49AM 29.1775 -77.5311 179° South 471 542 37,900  Descending Miami Center
03:50AM 29.0442 -77.5281 179° South 475 547 38,000  Climbing Miami Center
03:51AM 28.9147 -77.5250 178° South 475 547 38,000  Level Miami Center
03:52AM 28.7833 -77.5194 179° South 481 554 38,000  Level Miami Center
03:53AM 28.6372 -77.5161 178° South 461 531 38,000  Level Miami Center
03:54AM 28.5161 -77.5108 179° South 471 542 38,000  Level Miami Center
03:55AM 28.3889 -77.5075 179° South 476 548 38,000  Level Miami Center
03:56AM 28.2553 -77.5044 178° South 476 548 38,000  Level Miami Center
03:57AM 28.1300 -77.4992 177° South 476 548 38,000  Level Miami Center
03:59AM 27.8503 -77.4833 177° South 459 528 38,000  Level Miami Center
04:00AM 27.7167 -77.4756 186° South 465 535 38,000  Level Miami Center
04:01AM 27.5808 -77.4914 172° South 476 548 38,000  Level Miami Center
04:02AM 27.4453 -77.4694 179° South 481 554 38,000  Level Miami Center
04:05AM 27.0589 -77.4606 181° South 475 547 38,000  Level Miami Center
04:06AM 26.9250 -77.4622 179° South 475 547 38,000  Level Miami Center
04:07AM 26.7936 -77.4592 178° South 475 547 38,100 360 Climbing Miami Center
04:08AM 26.6578 -77.4539 177° South 480 552 38,800 420 Climbing Miami Center
04:09AM 26.5242 -77.4461 179° South 480 552 39,000 60 Climbing Miami Center
04:10AM 26.3861 -77.4433 180° South 480 552 39,000  Level Miami Center
04:11AM 26.2525 -77.4425 177° South 485 558 39,000  Level Miami Center
04:12AM 26.1189 -77.4350 179° South 480 552 39,000  Level Miami Center
04:13AM 25.9850 -77.4319 178° South 480 552 39,000  Level Miami Center
04:14AM 25.8492 -77.4269 179° South 480 552 39,000  Level Miami Center
04:15AM 25.7175 -77.4239 179° South 480 552 39,000  Level Miami Center
04:16AM 25.5797 -77.4208 178° South 480 552 39,000  Level Miami Center
04:17AM 25.4461 -77.4158 178° South 480 552 39,000  Level Miami Center
04:18AM 25.3103 -77.4106 177° South 480 552 39,000  Level Miami Center
04:19AM 25.1764 -77.4031 180° South 485 558 39,000  Level Miami Center
04:20AM 25.0217 -77.4022 177° South 490 564 39,000  Level Miami Center
04:21AM 24.8733 -77.3947 180° South 510 587 39,000  Level Miami Center
04:22AM 24.7375 -77.3942 179° South 510 587 39,000  Level Miami Center
04:23AM 24.6039 -77.3914 178° South 504 580 39,000  Level Miami Center
04:24AM 24.4681 -77.3864 178° South 499 574 39,000  Level Miami Center
04:25AM 24.3342 -77.3811 179° South 493 567 39,000  Level Miami Center
04:26AM 24.1983 -77.3783 178° South 488 562 39,000  Level Miami Center
04:27AM 24.0647 -77.3733 179° South 488 562 39,000  Level Miami Center
04:28AM 23.9289 -77.3703 180° South 493 567 39,000  Level Miami Center
04:29AM 23.7931 -77.3700 175° South 493 567 39,000  Level Miami Center
04:30AM 23.6572 -77.3581 178° South 493 567 39,000  Level Miami Center
04:31AM 23.5256 -77.3531 177° South 488 562 39,000  Level Miami Center
04:39AM 22.5874 -77.2946 174° South  Level FlightAware Approximate
04:40AM 22.4657 -77.2811 174° South  Level FlightAware Approximate
04:41AM 22.3440 -77.2676 174° South  Level FlightAware Approximate
04:42AM 22.2223 -77.2541 174° South  Level FlightAware Approximate
04:43AM 22.1006 -77.2406 174° South  Level FlightAware Approximate
04:44AM 21.9789 -77.2272 174° South  Level FlightAware Approximate
04:45AM 21.8572 -77.2138 174° South  Level FlightAware Approximate
04:46AM 21.7355 -77.2004 174° South  Level FlightAware Approximate
04:47AM 21.6138 -77.1871 174° South  Level FlightAware Approximate
04:48AM 21.4921 -77.1738 174° South  Level FlightAware Approximate
04:49AM 21.3704 -77.1604 174° South  Level FlightAware Approximate
04:50AM 21.2487 -77.1471 174° South  Level FlightAware Approximate
04:51AM 21.1269 -77.1339 174° South  Level FlightAware Approximate
04:52AM 21.0052 -77.1206 174° South  Level FlightAware Approximate
04:53AM 20.8835 -77.1074 174° South  Level FlightAware Approximate
04:54AM 20.7618 -77.0942 224° Southwest  Level FlightAware Approximate
04:55AM 20.6755 -77.1830 172° South  Level FlightAware Approximate
04:56AM 20.5543 -77.1654 172° South  Level FlightAware Approximate
04:57AM 20.4331 -77.1478 188° South  Level FlightAware Approximate
04:58AM 20.3121 -77.1663 171° South  Level FlightAware Approximate
04:59AM 20.1911 -77.1469 171° South  Level FlightAware Approximate
05:00AM 20.0701 -77.1275 171° South  Level FlightAware Approximate
05:01AM 19.9491 -77.1081 191° South  Level FlightAware Approximate
05:02AM 19.8301 -77.1333 176° South  Level FlightAware Approximate
05:03AM 19.7083 -77.1239 177° South  Level FlightAware Approximate
05:04AM 19.5864 -77.1167 178° South  Level FlightAware Approximate
05:05AM 19.4645 -77.1125 169° South  Level FlightAware Approximate
05:06AM 19.3446 -77.0867 166° South  Level FlightAware Approximate
05:07AM 19.2256 -77.0564 169° South  Level FlightAware Approximate
05:08AM 19.1057 -77.0311 169° South  Level FlightAware Approximate
05:09AM 18.9857 -77.0059 169° South  Level FlightAware Approximate
05:10AM 18.8657 -76.9807 170° South  Level FlightAware Approximate
05:11AM 18.7454 -76.9572 169° South  Level FlightAware Approximate
05:12AM 18.6255 -76.9318 168° South  Level FlightAware Approximate
05:13AM 18.5061 -76.9041 167° South  Level FlightAware Approximate
05:14AM 18.3870 -76.8756 170° South  Level FlightAware Approximate
05:15AM 18.2665 -76.8533 168° South  Level FlightAware Approximate
05:16AM 18.1469 -76.8267 170° South  Level FlightAware Approximate
05:17AM 18.0271 -76.8054 162° South  Level FlightAware Approximate
05:18AM 17.9167 -76.7667 314° West  Level FlightAware Approximate
05:19AM 18.0013 -76.8595 134° Southeast  Level Estimated
05:20AM 17.9167 -76.7667 314° West  Level Estimated
05:21AM 18.0013 -76.8595 134° Southeast  Level Estimated
05:22AM 17.9167 -76.7667 314° West  Level FlightAware Approximate
05:23AM 18.0013 -76.8595 134° Southeast  Level Estimated
05:24AM 17.9167 -76.7667 314° West  Level FlightAware Approximate
05:25AM 18.0013 -76.8595 134° Southeast  Level Estimated
05:26AM 17.9167 -76.7667 314° West  Level FlightAware Approximate
05:27AM 18.0013 -76.8595 134° Southeast  Level Estimated
05:28AM 17.9167 -76.7667 314° West  Level FlightAware Approximate
05:29AM 18.0013 -76.8595 314° West  Level Estimated